Berlin-Schönefeld International Airport EDDB

Flugplatz Daten

Name: Berlin-Schönefeld International Airport

Ident: EDDB

Lat: 52,38000107

Long: 13,52250004

Platzhöhe: 157 ft

IataCode: SXF

City: Berlin

Metar

2021/10/20 13:50
EDDB 201350Z 21016KT CAVOK 19/11 Q1004 TEMPO 21015G25KT

Taf

2021/10/20 12:27
TAF TAF EDDB 201100Z 2012/2112 22015KT 9999 SCT040
TEMPO 2012/2018 22015G25KT
BECMG 2104/2106 22015G30KT
BECMG 2106/2109 22020G35KT
TEMPO 2107/2112 24025G45KT
Gewünschte Webcam nicht vorhanden? Dann fügen Sie eine hinzu. Sie wird dann so schnell wie möglich freigeschaltet
Url: Title: